sensor_id;sensor_type;location;lat;lon;timestamp;temperature;humidity
10390;DHT22;5241;47.830;12.972;2022-12-24T00:00:22;8.80;99.90
10390;DHT22;5241;47.830;12.972;2022-12-24T00:02:49;8.80;99.90
10390;DHT22;5241;47.830;12.972;2022-12-24T00:05:15;8.80;99.90
10390;DHT22;5241;47.830;12.972;2022-12-24T00:07:41;8.80;99.90
10390;DHT22;5241;47.830;12.972;2022-12-24T00:10:07;8.70;99.90
10390;DHT22;5241;47.830;12.972;2022-12-24T00:12:33;8.80;99.90
10390;DHT22;5241;47.830;12.972;2022-12-24T00:14:58;8.80;99.90
10390;DHT22;5241;47.830;12.972;2022-12-24T00:17:24;8.80;99.90
10390;DHT22;5241;47.830;12.972;2022-12-24T00:19:50;8.70;99.90
10390;DHT22;5241;47.830;12.972;2022-12-24T00:22:15;8.60;99.90
10390;DHT22;5241;47.830;12.972;2022-12-24T00:24:41;8.60;99.90
10390;DHT22;5241;47.830;12.972;2022-12-24T00:27:06;8.60;99.90
10390;DHT22;5241;47.830;12.972;2022-12-24T00:29:32;8.60;99.90
10390;DHT22;5241;47.830;12.972;2022-12-24T00:31:58;8.60;99.90
10390;DHT22;5241;47.830;12.972;2022-12-24T00:34:24;8.60;99.90
10390;DHT22;5241;47.830;12.972;2022-12-24T00:36:50;8.60;99.90
10390;DHT22;5241;47.830;12.972;2022-12-24T00:39:16;8.60;99.90
10390;DHT22;5241;47.830;12.972;2022-12-24T00:41:41;8.60;99.90
10390;DHT22;5241;47.830;12.972;2022-12-24T00:44:08;8.50;99.90
10390;DHT22;5241;47.830;12.972;2022-12-24T00:46:38;8.40;99.90
10390;DHT22;5241;47.830;12.972;2022-12-24T00:49:05;8.50;99.90
10390;DHT22;5241;47.830;12.972;2022-12-24T00:51:32;8.40;99.90
10390;DHT22;5241;47.830;12.972;2022-12-24T00:53:58;8.40;99.90
10390;DHT22;5241;47.830;12.972;2022-12-24T00:56:24;8.40;99.90
10390;DHT22;5241;47.830;12.972;2022-12-24T00:58:50;8.30;99.90
10390;DHT22;5241;47.830;12.972;2022-12-24T01:01:16;8.30;99.90
10390;DHT22;5241;47.830;12.972;2022-12-24T01:03:41;8.20;99.90
10390;DHT22;5241;47.830;12.972;2022-12-24T01:06:13;8.10;99.90
10390;DHT22;5241;47.830;12.972;2022-12-24T01:08:39;8.10;99.90
10390;DHT22;5241;47.830;12.972;2022-12-24T01:11:06;8.20;99.90
10390;DHT22;5241;47.830;12.972;2022-12-24T01:13:32;8.10;99.90
10390;DHT22;5241;47.830;12.972;2022-12-24T01:15:58;8.10;99.90
10390;DHT22;5241;47.830;12.972;2022-12-24T01:18:24;8.10;99.90
10390;DHT22;5241;47.830;12.972;2022-12-24T01:20:57;8.00;99.90
10390;DHT22;5241;47.830;12.972;2022-12-24T01:23:23;8.00;99.90
10390;DHT22;5241;47.830;12.972;2022-12-24T01:25:48;8.10;99.90
10390;DHT22;5241;47.830;12.972;2022-12-24T01:28:14;8.10;99.90
10390;DHT22;5241;47.830;12.972;2022-12-24T01:30:40;8.00;99.90
10390;DHT22;5241;47.830;12.972;2022-12-24T01:33:06;8.00;99.90
10390;DHT22;5241;47.830;12.972;2022-12-24T01:35:31;8.00;99.90
10390;DHT22;5241;47.830;12.972;2022-12-24T01:37:57;7.90;99.90
10390;DHT22;5241;47.830;12.972;2022-12-24T01:40:25;7.80;99.90
10390;DHT22;5241;47.830;12.972;2022-12-24T01:43:16;7.70;99.90
10390;DHT22;5241;47.830;12.972;2022-12-24T01:46:03;7.60;99.90
10390;DHT22;5241;47.830;12.972;2022-12-24T01:54:08;7.60;99.90
10390;DHT22;5241;47.830;12.972;2022-12-24T01:56:37;7.60;99.90
10390;DHT22;5241;47.830;12.972;2022-12-24T01:59:07;7.50;99.90
10390;DHT22;5241;47.830;12.972;2022-12-24T02:01:35;7.50;99.90
10390;DHT22;5241;47.830;12.972;2022-12-24T02:06:52;7.50;99.90
10390;DHT22;5241;47.830;12.972;2022-12-24T02:09:18;7.40;99.90
10390;DHT22;5241;47.830;12.972;2022-12-24T02:11:44;7.40;99.90
10390;DHT22;5241;47.830;12.972;2022-12-24T02:14:11;7.30;99.90
10390;DHT22;5241;47.830;12.972;2022-12-24T02:22:11;7.20;99.90
10390;DHT22;5241;47.830;12.972;2022-12-24T02:30:10;7.20;99.90
10390;DHT22;5241;47.830;12.972;2022-12-24T02:35:19;7.30;99.90
10390;DHT22;5241;47.830;12.972;2022-12-24T02:37:55;7.40;99.90
10390;DHT22;5241;47.830;12.972;2022-12-24T02:40:31;7.30;99.90
10390;DHT22;5241;47.830;12.972;2022-12-24T02:43:02;7.40;99.90
10390;DHT22;5241;47.830;12.972;2022-12-24T02:45:31;7.40;99.90
10390;DHT22;5241;47.830;12.972;2022-12-24T02:47:58;7.30;99.90
10390;DHT22;5241;47.830;12.972;2022-12-24T02:50:24;7.40;99.90
10390;DHT22;5241;47.830;12.972;2022-12-24T02:52:50;7.40;99.90
10390;DHT22;5241;47.830;12.972;2022-12-24T02:58:33;7.30;99.90
10390;DHT22;5241;47.830;12.972;2022-12-24T03:04:30;7.10;99.90
10390;DHT22;5241;47.830;12.972;2022-12-24T03:09:54;7.00;99.90
10390;DHT22;5241;47.830;12.972;2022-12-24T03:12:37;7.00;99.90
10390;DHT22;5241;47.830;12.972;2022-12-24T03:15:09;7.00;99.90
10390;DHT22;5241;47.830;12.972;2022-12-24T03:17:37;7.00;99.90
10390;DHT22;5241;47.830;12.972;2022-12-24T03:20:05;6.90;99.90
10390;DHT22;5241;47.830;12.972;2022-12-24T03:22:33;6.90;99.90
10390;DHT22;5241;47.830;12.972;2022-12-24T03:25:00;6.80;99.90
10390;DHT22;5241;47.830;12.972;2022-12-24T03:27:30;6.70;99.90
10390;DHT22;5241;47.830;12.972;2022-12-24T03:29:57;6.70;99.90
10390;DHT22;5241;47.830;12.972;2022-12-24T03:32:30;6.70;99.90
10390;DHT22;5241;47.830;12.972;2022-12-24T03:34:56;6.60;99.90
10390;DHT22;5241;47.830;12.972;2022-12-24T03:37:23;6.60;99.90
10390;DHT22;5241;47.830;12.972;2022-12-24T03:39:49;6.60;99.90
10390;DHT22;5241;47.830;12.972;2022-12-24T03:42:15;6.50;99.90
10390;DHT22;5241;47.830;12.972;2022-12-24T03:44:41;6.60;99.90
10390;DHT22;5241;47.830;12.972;2022-12-24T03:47:06;6.60;99.90
10390;DHT22;5241;47.830;12.972;2022-12-24T03:49:32;6.60;99.90
10390;DHT22;5241;47.830;12.972;2022-12-24T03:51:57;6.50;99.90
10390;DHT22;5241;47.830;12.972;2022-12-24T03:54:23;6.50;99.90
10390;DHT22;5241;47.830;12.972;2022-12-24T03:56:48;6.50;99.90
10390;DHT22;5241;47.830;12.972;2022-12-24T03:59:14;6.40;99.90
10390;DHT22;5241;47.830;12.972;2022-12-24T04:01:40;6.40;99.90
10390;DHT22;5241;47.830;12.972;2022-12-24T04:04:05;6.30;99.90
10390;DHT22;5241;47.830;12.972;2022-12-24T04:06:31;6.30;99.90
10390;DHT22;5241;47.830;12.972;2022-12-24T04:08:56;6.20;99.90
10390;DHT22;5241;47.830;12.972;2022-12-24T04:11:26;6.10;99.90
10390;DHT22;5241;47.830;12.972;2022-12-24T04:13:51;6.10;99.90
10390;DHT22;5241;47.830;12.972;2022-12-24T04:16:17;6.10;99.90
10390;DHT22;5241;47.830;12.972;2022-12-24T04:18:42;6.10;99.90
10390;DHT22;5241;47.830;12.972;2022-12-24T04:21:08;6.20;99.90
10390;DHT22;5241;47.830;12.972;2022-12-24T04:23:35;6.20;99.90
10390;DHT22;5241;47.830;12.972;2022-12-24T04:26:02;6.10;99.90
10390;DHT22;5241;47.830;12.972;2022-12-24T04:28:29;6.00;99.90
10390;DHT22;5241;47.830;12.972;2022-12-24T04:31:03;6.00;99.90
10390;DHT22;5241;47.830;12.972;2022-12-24T04:33:29;6.00;99.90
10390;DHT22;5241;47.830;12.972;2022-12-24T04:35:59;6.00;99.90
10390;DHT22;5241;47.830;12.972;2022-12-24T04:38:25;6.20;99.90
10390;DHT22;5241;47.830;12.972;2022-12-24T04:41:09;6.50;99.90
10390;DHT22;5241;47.830;12.972;2022-12-24T04:43:35;6.70;99.90
10390;DHT22;5241;47.830;12.972;2022-12-24T04:46:09;6.80;99.90
10390;DHT22;5241;47.830;12.972;2022-12-24T04:48:36;6.90;99.90
10390;DHT22;5241;47.830;12.972;2022-12-24T04:51:03;7.10;99.90
10390;DHT22;5241;47.830;12.972;2022-12-24T04:53:30;7.20;99.90
10390;DHT22;5241;47.830;12.972;2022-12-24T04:55:56;7.20;99.90
10390;DHT22;5241;47.830;12.972;2022-12-24T04:58:22;7.20;99.90
10390;DHT22;5241;47.830;12.972;2022-12-24T05:00:47;7.20;99.90
10390;DHT22;5241;47.830;12.972;2022-12-24T05:03:13;7.10;99.90
10390;DHT22;5241;47.830;12.972;2022-12-24T05:05:38;7.10;99.90
10390;DHT22;5241;47.830;12.972;2022-12-24T05:08:04;7.10;99.90
10390;DHT22;5241;47.830;12.972;2022-12-24T05:10:30;7.10;99.90
10390;DHT22;5241;47.830;12.972;2022-12-24T05:12:56;7.00;99.90
10390;DHT22;5241;47.830;12.972;2022-12-24T05:15:22;7.00;99.90
10390;DHT22;5241;47.830;12.972;2022-12-24T05:17:47;7.00;99.90
10390;DHT22;5241;47.830;12.972;2022-12-24T05:20:13;7.10;99.90
10390;DHT22;5241;47.830;12.972;2022-12-24T05:22:38;7.00;99.90
10390;DHT22;5241;47.830;12.972;2022-12-24T05:25:23;7.00;99.90
10390;DHT22;5241;47.830;12.972;2022-12-24T05:28:07;7.00;99.90
10390;DHT22;5241;47.830;12.972;2022-12-24T05:30:32;7.00;99.90
10390;DHT22;5241;47.830;12.972;2022-12-24T05:32:58;7.00;99.90
10390;DHT22;5241;47.830;12.972;2022-12-24T05:35:23;7.10;99.90
10390;DHT22;5241;47.830;12.972;2022-12-24T05:37:49;7.10;99.90
10390;DHT22;5241;47.830;12.972;2022-12-24T05:40:14;7.10;99.90
10390;DHT22;5241;47.830;12.972;2022-12-24T05:42:40;7.10;99.90
10390;DHT22;5241;47.830;12.972;2022-12-24T05:45:06;7.10;99.90
10390;DHT22;5241;47.830;12.972;2022-12-24T05:47:32;7.20;99.90
10390;DHT22;5241;47.830;12.972;2022-12-24T05:49:57;7.30;99.90
10390;DHT22;5241;47.830;12.972;2022-12-24T05:52:23;7.20;99.90
10390;DHT22;5241;47.830;12.972;2022-12-24T05:54:48;7.30;99.90
10390;DHT22;5241;47.830;12.972;2022-12-24T05:57:15;7.30;99.90
10390;DHT22;5241;47.830;12.972;2022-12-24T05:59:40;7.30;99.90
10390;DHT22;5241;47.830;12.972;2022-12-24T06:02:06;7.40;99.90
10390;DHT22;5241;47.830;12.972;2022-12-24T06:04:31;7.50;99.90
10390;DHT22;5241;47.830;12.972;2022-12-24T06:06:57;7.40;99.90
10390;DHT22;5241;47.830;12.972;2022-12-24T06:09:22;7.40;99.90
10390;DHT22;5241;47.830;12.972;2022-12-24T06:11:48;7.40;99.90
10390;DHT22;5241;47.830;12.972;2022-12-24T06:14:13;7.40;99.90
10390;DHT22;5241;47.830;12.972;2022-12-24T06:16:39;7.30;99.90
10390;DHT22;5241;47.830;12.972;2022-12-24T06:19:04;7.30;99.90
10390;DHT22;5241;47.830;12.972;2022-12-24T06:21:30;7.30;99.90
10390;DHT22;5241;47.830;12.972;2022-12-24T06:23:56;7.30;99.90
10390;DHT22;5241;47.830;12.972;2022-12-24T06:26:22;7.40;99.90
10390;DHT22;5241;47.830;12.972;2022-12-24T06:28:48;7.40;99.90
10390;DHT22;5241;47.830;12.972;2022-12-24T06:31:18;7.40;99.90
10390;DHT22;5241;47.830;12.972;2022-12-24T06:33:44;7.40;99.90
10390;DHT22;5241;47.830;12.972;2022-12-24T06:36:21;7.50;99.90
10390;DHT22;5241;47.830;12.972;2022-12-24T06:38:48;7.50;99.90
10390;DHT22;5241;47.830;12.972;2022-12-24T06:41:15;7.50;99.90
10390;DHT22;5241;47.830;12.972;2022-12-24T06:43:45;7.60;99.90
10390;DHT22;5241;47.830;12.972;2022-12-24T06:46:11;7.50;99.90
10390;DHT22;5241;47.830;12.972;2022-12-24T06:48:37;7.60;99.90
10390;DHT22;5241;47.830;12.972;2022-12-24T06:51:03;7.60;99.90
10390;DHT22;5241;47.830;12.972;2022-12-24T06:53:29;7.60;99.90
10390;DHT22;5241;47.830;12.972;2022-12-24T06:56:03;7.60;99.90
10390;DHT22;5241;47.830;12.972;2022-12-24T06:58:29;7.60;99.90
10390;DHT22;5241;47.830;12.972;2022-12-24T07:00:55;7.60;99.90
10390;DHT22;5241;47.830;12.972;2022-12-24T07:03:20;7.70;99.90
10390;DHT22;5241;47.830;12.972;2022-12-24T07:05:46;7.70;99.90
10390;DHT22;5241;47.830;12.972;2022-12-24T07:08:12;7.70;99.90
10390;DHT22;5241;47.830;12.972;2022-12-24T07:10:37;7.80;99.90
10390;DHT22;5241;47.830;12.972;2022-12-24T07:13:03;7.80;99.90
10390;DHT22;5241;47.830;12.972;2022-12-24T07:15:28;7.80;99.90
10390;DHT22;5241;47.830;12.972;2022-12-24T07:17:54;7.80;99.90
10390;DHT22;5241;47.830;12.972;2022-12-24T07:20:19;7.80;99.90
10390;DHT22;5241;47.830;12.972;2022-12-24T07:22:45;7.80;99.90
10390;DHT22;5241;47.830;12.972;2022-12-24T07:25:11;7.80;99.90
10390;DHT22;5241;47.830;12.972;2022-12-24T07:27:37;7.80;99.90
10390;DHT22;5241;47.830;12.972;2022-12-24T07:30:03;7.80;99.90
10390;DHT22;5241;47.830;12.972;2022-12-24T07:32:29;7.80;99.90
10390;DHT22;5241;47.830;12.972;2022-12-24T07:34:54;7.90;99.90
10390;DHT22;5241;47.830;12.972;2022-12-24T07:37:20;7.90;99.90
10390;DHT22;5241;47.830;12.972;2022-12-24T07:39:46;7.90;99.90
10390;DHT22;5241;47.830;12.972;2022-12-24T07:42:11;7.90;99.90
10390;DHT22;5241;47.830;12.972;2022-12-24T07:44:37;7.90;99.90
10390;DHT22;5241;47.830;12.972;2022-12-24T07:47:02;8.00;99.90
10390;DHT22;5241;47.830;12.972;2022-12-24T07:49:28;8.00;99.90
10390;DHT22;5241;47.830;12.972;2022-12-24T07:51:53;7.90;99.90
10390;DHT22;5241;47.830;12.972;2022-12-24T07:54:19;7.80;99.90
10390;DHT22;5241;47.830;12.972;2022-12-24T07:56:45;7.80;99.90
10390;DHT22;5241;47.830;12.972;2022-12-24T07:59:12;7.80;99.90
10390;DHT22;5241;47.830;12.972;2022-12-24T08:01:38;7.80;99.90
10390;DHT22;5241;47.830;12.972;2022-12-24T08:04:03;7.80;99.90
10390;DHT22;5241;47.830;12.972;2022-12-24T08:06:29;7.80;99.90
10390;DHT22;5241;47.830;12.972;2022-12-24T08:08:55;7.80;99.90
10390;DHT22;5241;47.830;12.972;2022-12-24T08:11:20;7.70;99.90
10390;DHT22;5241;47.830;12.972;2022-12-24T08:13:46;7.70;99.90
10390;DHT22;5241;47.830;12.972;2022-12-24T08:16:11;7.70;99.90
10390;DHT22;5241;47.830;12.972;2022-12-24T08:18:37;7.70;99.90
10390;DHT22;5241;47.830;12.972;2022-12-24T08:21:06;7.60;99.90
10390;DHT22;5241;47.830;12.972;2022-12-24T08:23:31;7.60;99.90
10390;DHT22;5241;47.830;12.972;2022-12-24T08:25:57;7.60;99.90
10390;DHT22;5241;47.830;12.972;2022-12-24T08:28:22;7.60;99.90
10390;DHT22;5241;47.830;12.972;2022-12-24T08:30:49;7.60;99.90
10390;DHT22;5241;47.830;12.972;2022-12-24T08:33:15;7.70;99.90
10390;DHT22;5241;47.830;12.972;2022-12-24T08:35:46;7.80;99.90
10390;DHT22;5241;47.830;12.972;2022-12-24T08:38:12;7.80;99.90
10390;DHT22;5241;47.830;12.972;2022-12-24T08:40:37;7.80;99.90
10390;DHT22;5241;47.830;12.972;2022-12-24T08:43:03;7.90;99.90
10390;DHT22;5241;47.830;12.972;2022-12-24T08:45:29;7.90;99.90
10390;DHT22;5241;47.830;12.972;2022-12-24T08:47:54;7.90;99.90
10390;DHT22;5241;47.830;12.972;2022-12-24T08:50:20;7.90;99.90
10390;DHT22;5241;47.830;12.972;2022-12-24T08:52:45;8.00;99.90
10390;DHT22;5241;47.830;12.972;2022-12-24T08:55:11;8.00;99.90
10390;DHT22;5241;47.830;12.972;2022-12-24T08:57:36;8.00;99.90
10390;DHT22;5241;47.830;12.972;2022-12-24T09:00:04;8.10;99.90
10390;DHT22;5241;47.830;12.972;2022-12-24T09:02:30;8.00;99.90
10390;DHT22;5241;47.830;12.972;2022-12-24T09:04:56;8.00;99.90
10390;DHT22;5241;47.830;12.972;2022-12-24T09:07:21;8.10;99.90
10390;DHT22;5241;47.830;12.972;2022-12-24T09:09:47;8.20;99.90
10390;DHT22;5241;47.830;12.972;2022-12-24T09:12:12;8.20;99.90
10390;DHT22;5241;47.830;12.972;2022-12-24T09:14:38;8.50;99.90
10390;DHT22;5241;47.830;12.972;2022-12-24T09:17:03;8.80;99.90
10390;DHT22;5241;47.830;12.972;2022-12-24T09:19:29;9.00;99.90
10390;DHT22;5241;47.830;12.972;2022-12-24T09:21:54;9.20;99.90
10390;DHT22;5241;47.830;12.972;2022-12-24T09:24:20;9.50;99.90
10390;DHT22;5241;47.830;12.972;2022-12-24T09:26:46;9.60;99.90
10390;DHT22;5241;47.830;12.972;2022-12-24T09:29:14;9.60;99.90
10390;DHT22;5241;47.830;12.972;2022-12-24T09:31:40;9.60;99.90
10390;DHT22;5241;47.830;12.972;2022-12-24T09:34:06;9.60;99.90
10390;DHT22;5241;47.830;12.972;2022-12-24T09:36:32;9.60;99.90
10390;DHT22;5241;47.830;12.972;2022-12-24T09:38:58;9.60;99.90
10390;DHT22;5241;47.830;12.972;2022-12-24T09:41:44;9.70;99.90
10390;DHT22;5241;47.830;12.972;2022-12-24T09:47:00;10.00;99.90
10390;DHT22;5241;47.830;12.972;2022-12-24T09:49:36;10.00;99.90
10390;DHT22;5241;47.830;12.972;2022-12-24T09:52:20;10.00;99.90
10390;DHT22;5241;47.830;12.972;2022-12-24T09:55:55;10.20;99.90
10390;DHT22;5241;47.830;12.972;2022-12-24T09:57:49;10.20;99.90
10390;DHT22;5241;47.830;12.972;2022-12-24T10:00:30;9.90;99.90
10390;DHT22;5241;47.830;12.972;2022-12-24T10:02:56;10.00;99.90
10390;DHT22;5241;47.830;12.972;2022-12-24T10:08:19;10.10;99.90
10390;DHT22;5241;47.830;12.972;2022-12-24T10:10:53;10.20;99.90
10390;DHT22;5241;47.830;12.972;2022-12-24T10:19:03;10.40;99.90
10390;DHT22;5241;47.830;12.972;2022-12-24T10:24:21;10.70;99.90
10390;DHT22;5241;47.830;12.972;2022-12-24T10:27:00;10.70;99.90
10390;DHT22;5241;47.830;12.972;2022-12-24T10:29:33;10.50;99.90
10390;DHT22;5241;47.830;12.972;2022-12-24T10:34:43;10.50;99.90
10390;DHT22;5241;47.830;12.972;2022-12-24T10:37:26;10.50;99.90
10390;DHT22;5241;47.830;12.972;2022-12-24T10:39:53;10.60;99.90
10390;DHT22;5241;47.830;12.972;2022-12-24T10:42:20;10.80;99.90
10390;DHT22;5241;47.830;12.972;2022-12-24T10:44:53;10.80;99.90
10390;DHT22;5241;47.830;12.972;2022-12-24T10:47:21;10.80;99.90
10390;DHT22;5241;47.830;12.972;2022-12-24T10:52:34;11.00;99.90
10390;DHT22;5241;47.830;12.972;2022-12-24T10:57:31;10.70;99.90
10390;DHT22;5241;47.830;12.972;2022-12-24T10:59:56;10.70;99.90
10390;DHT22;5241;47.830;12.972;2022-12-24T11:02:31;10.70;99.90
10390;DHT22;5241;47.830;12.972;2022-12-24T11:04:58;10.80;99.90
10390;DHT22;5241;47.830;12.972;2022-12-24T11:07:25;10.90;99.90
10390;DHT22;5241;47.830;12.972;2022-12-24T11:09:58;11.00;99.90
10390;DHT22;5241;47.830;12.972;2022-12-24T11:12:27;11.00;99.90
10390;DHT22;5241;47.830;12.972;2022-12-24T11:15:03;10.90;99.90
10390;DHT22;5241;47.830;12.972;2022-12-24T11:17:29;10.90;99.90
10390;DHT22;5241;47.830;12.972;2022-12-24T11:19:55;10.80;99.90
10390;DHT22;5241;47.830;12.972;2022-12-24T11:22:27;10.90;99.90
10390;DHT22;5241;47.830;12.972;2022-12-24T11:25:06;10.90;99.90
10390;DHT22;5241;47.830;12.972;2022-12-24T11:35:27;10.70;99.90
10390;DHT22;5241;47.830;12.972;2022-12-24T11:40:30;10.80;99.90
10390;DHT22;5241;47.830;12.972;2022-12-24T11:43:01;10.80;99.90
10390;DHT22;5241;47.830;12.972;2022-12-24T11:45:29;10.80;99.90
10390;DHT22;5241;47.830;12.972;2022-12-24T11:47:55;10.90;99.90
10390;DHT22;5241;47.830;12.972;2022-12-24T11:55:46;11.00;99.90
10390;DHT22;5241;47.830;12.972;2022-12-24T12:00:45;11.00;99.90
10390;DHT22;5241;47.830;12.972;2022-12-24T12:03:31;11.10;99.90
10390;DHT22;5241;47.830;12.972;2022-12-24T12:05:59;11.40;99.90
10390;DHT22;5241;47.830;12.972;2022-12-24T12:08:27;11.60;99.90
10390;DHT22;5241;47.830;12.972;2022-12-24T12:10:56;11.70;99.90
10390;DHT22;5241;47.830;12.972;2022-12-24T12:13:28;11.70;99.90
10390;DHT22;5241;47.830;12.972;2022-12-24T12:16:18;11.60;99.90
10390;DHT22;5241;47.830;12.972;2022-12-24T12:19:03;11.70;99.90
10390;DHT22;5241;47.830;12.972;2022-12-24T12:21:39;11.50;99.90
10390;DHT22;5241;47.830;12.972;2022-12-24T12:24:28;11.30;99.90
10390;DHT22;5241;47.830;12.972;2022-12-24T12:27:10;11.20;99.90
10390;DHT22;5241;47.830;12.972;2022-12-24T12:29:43;10.70;99.90
10390;DHT22;5241;47.830;12.972;2022-12-24T12:32:25;10.60;99.90
10390;DHT22;5241;47.830;12.972;2022-12-24T12:35:28;10.50;99.90
10390;DHT22;5241;47.830;12.972;2022-12-24T12:37:57;10.60;99.90
10390;DHT22;5241;47.830;12.972;2022-12-24T12:44:07;10.90;99.90
10390;DHT22;5241;47.830;12.972;2022-12-24T12:46:34;11.00;99.90
10390;DHT22;5241;47.830;12.972;2022-12-24T12:52:02;10.70;99.90
10390;DHT22;5241;47.830;12.972;2022-12-24T12:57:15;10.50;99.90
10390;DHT22;5241;47.830;12.972;2022-12-24T12:59:53;10.60;99.90
10390;DHT22;5241;47.830;12.972;2022-12-24T13:02:51;10.60;99.90
10390;DHT22;5241;47.830;12.972;2022-12-24T13:12:07;10.80;99.90
10390;DHT22;5241;47.830;12.972;2022-12-24T13:15:00;10.90;99.90
10390;DHT22;5241;47.830;12.972;2022-12-24T13:17:43;11.10;99.90
10390;DHT22;5241;47.830;12.972;2022-12-24T13:20:28;11.30;99.90
10390;DHT22;5241;47.830;12.972;2022-12-24T13:25:43;11.20;99.90
10390;DHT22;5241;47.830;12.972;2022-12-24T13:30:41;10.90;99.90
10390;DHT22;5241;47.830;12.972;2022-12-24T13:33:11;10.80;99.90
10390;DHT22;5241;47.830;12.972;2022-12-24T13:35:57;10.50;99.90
10390;DHT22;5241;47.830;12.972;2022-12-24T13:40:52;10.30;99.90
10390;DHT22;5241;47.830;12.972;2022-12-24T13:43:18;10.50;99.90
10390;DHT22;5241;47.830;12.972;2022-12-24T13:45:46;10.50;99.90
10390;DHT22;5241;47.830;12.972;2022-12-24T13:48:24;10.60;99.90
10390;DHT22;5241;47.830;12.972;2022-12-24T13:50:53;10.60;99.90
10390;DHT22;5241;47.830;12.972;2022-12-24T13:53:41;10.50;99.90
10390;DHT22;5241;47.830;12.972;2022-12-24T13:56:20;10.40;99.90
10390;DHT22;5241;47.830;12.972;2022-12-24T14:01:37;10.50;99.90
10390;DHT22;5241;47.830;12.972;2022-12-24T14:04:06;10.40;99.90
10390;DHT22;5241;47.830;12.972;2022-12-24T14:06:39;10.10;99.90
10390;DHT22;5241;47.830;12.972;2022-12-24T14:09:11;10.00;99.90
10390;DHT22;5241;47.830;12.972;2022-12-24T14:14:28;10.00;99.90
10390;DHT22;5241;47.830;12.972;2022-12-24T14:16:57;9.80;99.90
10390;DHT22;5241;47.830;12.972;2022-12-24T14:28:12;9.40;99.90
10390;DHT22;5241;47.830;12.972;2022-12-24T14:32:44;9.20;99.90
10390;DHT22;5241;47.830;12.972;2022-12-24T14:37:35;8.90;99.90
10390;DHT22;5241;47.830;12.972;2022-12-24T14:40:01;8.80;99.90
10390;DHT22;5241;47.830;12.972;2022-12-24T14:48:10;8.50;99.90
10390;DHT22;5241;47.830;12.972;2022-12-24T14:55:53;8.30;99.90
10390;DHT22;5241;47.830;12.972;2022-12-24T14:58:32;8.30;99.90
10390;DHT22;5241;47.830;12.972;2022-12-24T15:03:43;8.10;99.90
10390;DHT22;5241;47.830;12.972;2022-12-24T15:06:11;8.00;99.90
10390;DHT22;5241;47.830;12.972;2022-12-24T15:08:40;7.80;99.90
10390;DHT22;5241;47.830;12.972;2022-12-24T15:11:09;7.70;99.90
10390;DHT22;5241;47.830;12.972;2022-12-24T15:13:40;7.60;99.90
10390;DHT22;5241;47.830;12.972;2022-12-24T15:16:10;7.50;99.90
10390;DHT22;5241;47.830;12.972;2022-12-24T15:18:41;7.30;99.90
10390;DHT22;5241;47.830;12.972;2022-12-24T15:21:17;7.10;99.90
10390;DHT22;5241;47.830;12.972;2022-12-24T15:23:47;7.00;99.90
10390;DHT22;5241;47.830;12.972;2022-12-24T15:28:47;6.60;99.90
10390;DHT22;5241;47.830;12.972;2022-12-24T15:31:15;6.50;99.90
10390;DHT22;5241;47.830;12.972;2022-12-24T15:33:46;6.30;99.90
10390;DHT22;5241;47.830;12.972;2022-12-24T15:36:13;6.00;99.90
10390;DHT22;5241;47.830;12.972;2022-12-24T15:38:42;5.90;99.90
10390;DHT22;5241;47.830;12.972;2022-12-24T15:41:26;5.80;99.90
10390;DHT22;5241;47.830;12.972;2022-12-24T15:43:54;5.70;99.90
10390;DHT22;5241;47.830;12.972;2022-12-24T15:46:25;5.70;99.90
10390;DHT22;5241;47.830;12.972;2022-12-24T15:48:53;5.70;99.90
10390;DHT22;5241;47.830;12.972;2022-12-24T15:51:22;5.70;99.90
10390;DHT22;5241;47.830;12.972;2022-12-24T15:53:50;5.60;99.90
10390;DHT22;5241;47.830;12.972;2022-12-24T15:56:35;5.70;99.90
10390;DHT22;5241;47.830;12.972;2022-12-24T16:01:43;5.60;99.90
10390;DHT22;5241;47.830;12.972;2022-12-24T16:04:14;5.60;99.90
10390;DHT22;5241;47.830;12.972;2022-12-24T16:06:52;5.60;99.90
10390;DHT22;5241;47.830;12.972;2022-12-24T16:09:41;5.60;99.90
10390;DHT22;5241;47.830;12.972;2022-12-24T16:12:20;5.60;99.90
10390;DHT22;5241;47.830;12.972;2022-12-24T16:14:49;5.60;99.90
10390;DHT22;5241;47.830;12.972;2022-12-24T16:17:21;5.60;99.90
10390;DHT22;5241;47.830;12.972;2022-12-24T16:19:50;5.70;99.90
10390;DHT22;5241;47.830;12.972;2022-12-24T16:22:21;5.70;99.90
10390;DHT22;5241;47.830;12.972;2022-12-24T16:24:56;5.80;99.90
10390;DHT22;5241;47.830;12.972;2022-12-24T16:27:22;5.90;99.90
10390;DHT22;5241;47.830;12.972;2022-12-24T16:29:48;6.00;99.90
10390;DHT22;5241;47.830;12.972;2022-12-24T16:34:54;6.20;99.90
10390;DHT22;5241;47.830;12.972;2022-12-24T16:37:20;6.20;99.90
10390;DHT22;5241;47.830;12.972;2022-12-24T16:39:46;6.20;99.90
10390;DHT22;5241;47.830;12.972;2022-12-24T16:42:12;6.40;99.90
10390;DHT22;5241;47.830;12.972;2022-12-24T16:44:57;6.50;99.90
10390;DHT22;5241;47.830;12.972;2022-12-24T16:47:26;6.60;99.90
10390;DHT22;5241;47.830;12.972;2022-12-24T16:49:53;6.60;99.90
10390;DHT22;5241;47.830;12.972;2022-12-24T16:52:26;6.50;99.90
10390;DHT22;5241;47.830;12.972;2022-12-24T16:54:58;6.50;99.90
10390;DHT22;5241;47.830;12.972;2022-12-24T16:57:25;6.50;99.90
10390;DHT22;5241;47.830;12.972;2022-12-24T16:59:51;6.60;99.90
10390;DHT22;5241;47.830;12.972;2022-12-24T17:02:19;6.60;99.90
10390;DHT22;5241;47.830;12.972;2022-12-24T17:04:46;6.70;99.90
10390;DHT22;5241;47.830;12.972;2022-12-24T17:07:14;6.70;99.90
10390;DHT22;5241;47.830;12.972;2022-12-24T17:09:40;6.70;99.90
10390;DHT22;5241;47.830;12.972;2022-12-24T17:12:06;6.70;99.90
10390;DHT22;5241;47.830;12.972;2022-12-24T17:14:32;6.70;99.90
10390;DHT22;5241;47.830;12.972;2022-12-24T17:16:58;6.70;99.90
10390;DHT22;5241;47.830;12.972;2022-12-24T17:19:24;6.70;99.90
10390;DHT22;5241;47.830;12.972;2022-12-24T17:21:49;6.70;99.90
10390;DHT22;5241;47.830;12.972;2022-12-24T17:24:15;6.70;99.90
10390;DHT22;5241;47.830;12.972;2022-12-24T17:26:40;6.80;99.90
10390;DHT22;5241;47.830;12.972;2022-12-24T17:29:07;6.80;99.90
10390;DHT22;5241;47.830;12.972;2022-12-24T17:31:33;6.80;99.90
10390;DHT22;5241;47.830;12.972;2022-12-24T17:33:59;6.90;99.90
10390;DHT22;5241;47.830;12.972;2022-12-24T17:36:24;6.90;99.90
10390;DHT22;5241;47.830;12.972;2022-12-24T17:38:50;6.90;99.90
10390;DHT22;5241;47.830;12.972;2022-12-24T17:41:17;6.80;99.90
10390;DHT22;5241;47.830;12.972;2022-12-24T17:43:44;6.80;99.90
10390;DHT22;5241;47.830;12.972;2022-12-24T17:46:12;6.80;99.90
10390;DHT22;5241;47.830;12.972;2022-12-24T17:48:39;6.80;99.90
10390;DHT22;5241;47.830;12.972;2022-12-24T17:51:07;6.80;99.90
10390;DHT22;5241;47.830;12.972;2022-12-24T17:53:34;6.80;99.90
10390;DHT22;5241;47.830;12.972;2022-12-24T17:56:00;6.80;99.90
10390;DHT22;5241;47.830;12.972;2022-12-24T17:58:26;6.80;99.90
10390;DHT22;5241;47.830;12.972;2022-12-24T18:00:52;6.70;99.90
10390;DHT22;5241;47.830;12.972;2022-12-24T18:03:19;6.70;99.90
10390;DHT22;5241;47.830;12.972;2022-12-24T18:05:45;6.80;99.90
10390;DHT22;5241;47.830;12.972;2022-12-24T18:08:11;6.80;99.90